createdAt,value
2023-04-09T00:01:56.965Z,51.13
2023-04-09T00:04:25.224Z,50.99
2023-04-09T00:06:54.640Z,50.87
2023-04-09T00:09:22.745Z,50.82
2023-04-09T00:11:50.747Z,50.92
2023-04-09T00:14:31.613Z,50.76
2023-04-09T00:16:59.603Z,51.12
2023-04-09T00:19:27.684Z,51.24
2023-04-09T00:21:57.152Z,51.29
2023-04-09T00:24:25.184Z,51.32
2023-04-09T00:26:53.555Z,51.27
2023-04-09T00:29:21.781Z,51.18
2023-04-09T00:31:49.822Z,51.33
2023-04-09T00:34:17.903Z,51.34
2023-04-09T00:36:46.164Z,51.36
2023-04-09T00:39:15.572Z,51.40
2023-04-09T00:41:43.570Z,51.43
2023-04-09T00:44:11.584Z,51.42
2023-04-09T00:46:39.792Z,51.37
2023-04-09T00:49:08.229Z,51.39
2023-04-09T00:51:36.900Z,51.32
2023-04-09T00:54:05.683Z,51.40
2023-04-09T00:56:36.371Z,51.43
2023-04-09T00:59:04.485Z,51.37
2023-04-09T01:01:32.714Z,51.28
2023-04-09T01:04:01.430Z,51.69
2023-04-09T01:06:38.235Z,51.53
2023-04-09T01:09:10.890Z,51.85
2023-04-09T01:11:56.624Z,51.47
2023-04-09T01:14:29.849Z,51.62
2023-04-09T01:17:05.548Z,51.62
2023-04-09T01:19:45.321Z,51.36
2023-04-09T01:22:25.723Z,51.40
2023-04-09T01:25:04.575Z,51.37
2023-04-09T01:27:48.113Z,51.51
2023-04-09T01:30:19.291Z,51.65
2023-04-09T01:32:47.587Z,51.75
2023-04-09T01:35:16.145Z,51.78
2023-04-09T01:37:44.353Z,51.73
2023-04-09T01:40:13.227Z,51.83
2023-04-09T01:42:42.248Z,51.88
2023-04-09T01:45:13.379Z,51.77
2023-04-09T01:47:43.697Z,51.67
2023-04-09T01:50:12.313Z,51.67
2023-04-09T01:52:40.692Z,51.81
2023-04-09T01:55:09.499Z,52.12
2023-04-09T01:57:37.535Z,52.30
2023-04-09T02:00:07.841Z,52.20
2023-04-09T02:02:53.328Z,51.84
2023-04-09T02:05:23.398Z,52.03
2023-04-09T02:07:57.065Z,51.85
2023-04-09T02:10:28.336Z,51.97
2023-04-09T02:12:58.214Z,52.02
2023-04-09T02:15:29.689Z,52.15
2023-04-09T02:17:59.196Z,52.11
2023-04-09T02:20:28.054Z,52.14
2023-04-09T02:22:56.116Z,52.22
2023-04-09T02:25:24.393Z,52.33
2023-04-09T02:27:52.680Z,52.57
2023-04-09T02:30:20.734Z,52.60
2023-04-09T02:32:48.873Z,52.53
2023-04-09T02:35:18.569Z,52.52
2023-04-09T02:37:46.604Z,52.58
2023-04-09T02:40:14.809Z,52.75
2023-04-09T02:42:42.868Z,52.72
2023-04-09T02:45:11.784Z,52.65
2023-04-09T02:47:40.461Z,52.61
2023-04-09T02:50:09.614Z,52.52
2023-04-09T02:52:43.035Z,52.54
2023-04-09T02:55:11.439Z,52.61
2023-04-09T02:57:39.444Z,52.56
2023-04-09T03:00:08.751Z,52.49
2023-04-09T03:02:36.916Z,52.46
2023-04-09T03:05:06.027Z,52.40
2023-04-09T03:07:34.060Z,52.56
2023-04-09T03:10:03.501Z,52.47
2023-04-09T03:12:31.563Z,52.52
2023-04-09T03:14:59.619Z,52.61
2023-04-09T03:17:27.787Z,52.75
2023-04-09T03:19:55.960Z,52.79
2023-04-09T03:22:24.181Z,52.73
2023-04-09T03:24:54.412Z,52.63
2023-04-09T03:27:23.949Z,52.52
2023-04-09T03:29:57.121Z,52.58
2023-04-09T03:32:31.448Z,52.62
2023-04-09T03:34:59.541Z,52.69
2023-04-09T03:37:27.639Z,52.74
2023-04-09T03:39:55.816Z,52.71
2023-04-09T03:42:28.763Z,52.82
2023-04-09T03:44:57.044Z,52.82
2023-04-09T03:47:34.192Z,52.85
2023-04-09T03:50:02.495Z,52.83
2023-04-09T03:52:42.659Z,52.83
2023-04-09T03:55:11.602Z,52.78
2023-04-09T03:57:41.259Z,52.66
2023-04-09T04:00:13.995Z,52.68
2023-04-09T04:03:23.128Z,52.59
2023-04-09T04:06:08.036Z,52.56
2023-04-09T04:08:54.538Z,52.51
2023-04-09T04:11:28.525Z,52.52
2023-04-09T04:13:58.510Z,52.49
2023-04-09T04:16:26.670Z,52.54
2023-04-09T04:18:56.028Z,52.58
2023-04-09T04:21:24.093Z,52.65
2023-04-09T04:23:58.904Z,52.68
2023-04-09T04:26:29.652Z,52.68
2023-04-09T04:28:59.407Z,52.74
2023-04-09T04:31:47.786Z,52.78
2023-04-09T04:34:18.550Z,52.76
2023-04-09T04:36:51.096Z,52.70
2023-04-09T04:39:19.626Z,52.78
2023-04-09T04:42:01.728Z,52.86
2023-04-09T04:44:31.196Z,52.95
2023-04-09T04:47:25.661Z,53.01
2023-04-09T04:49:54.491Z,53.08
2023-04-09T04:52:23.610Z,53.10
2023-04-09T04:54:54.202Z,53.17
2023-04-09T04:57:24.752Z,53.20
2023-04-09T04:59:54.191Z,53.24
2023-04-09T05:02:22.821Z,53.27
2023-04-09T05:05:14.118Z,53.23
2023-04-09T05:07:48.611Z,53.27
2023-04-09T05:10:16.772Z,53.19
2023-04-09T05:12:46.293Z,53.20
2023-04-09T05:15:23.180Z,53.23
2023-04-09T05:17:51.281Z,53.36
2023-04-09T05:20:19.882Z,53.45
2023-04-09T05:22:55.200Z,53.46
2023-04-09T05:25:29.602Z,53.49
2023-04-09T05:27:57.800Z,53.58
2023-04-09T05:30:28.134Z,53.70
2023-04-09T05:32:58.463Z,53.76
2023-04-09T05:35:28.772Z,53.94
2023-04-09T05:37:57.054Z,53.98
2023-04-09T05:40:25.380Z,54.01
2023-04-09T05:42:54.480Z,54.02
2023-04-09T05:45:37.835Z,54.17
2023-04-09T05:48:06.252Z,54.20
2023-04-09T05:50:40.872Z,54.35
2023-04-09T05:53:20.183Z,54.33
2023-04-09T05:55:49.287Z,54.36
2023-04-09T05:58:18.793Z,54.30
2023-04-09T06:00:51.514Z,54.30
2023-04-09T06:03:19.895Z,54.18
2023-04-09T06:05:48.350Z,54.26
2023-04-09T06:08:16.642Z,54.37
2023-04-09T06:10:44.756Z,54.30
2023-04-09T06:13:12.832Z,54.17
2023-04-09T06:15:41.234Z,54.46
2023-04-09T06:18:11.106Z,54.63
2023-04-09T06:20:39.368Z,54.55
2023-04-09T06:23:07.631Z,54.45
2023-04-09T06:25:36.848Z,54.20
2023-04-09T06:28:05.372Z,54.08
2023-04-09T06:30:33.694Z,54.00
2023-04-09T06:33:02.059Z,53.94
2023-04-09T06:35:31.859Z,53.88
2023-04-09T06:38:00.219Z,53.78
2023-04-09T06:40:28.715Z,53.72
2023-04-09T06:42:56.954Z,53.67
2023-04-09T06:45:31.385Z,53.65
2023-04-09T06:47:59.969Z,53.43
2023-04-09T06:50:28.396Z,53.27
2023-04-09T06:52:58.891Z,53.17
2023-04-09T06:55:28.033Z,53.25
2023-04-09T06:57:56.285Z,53.25
2023-04-09T07:00:24.593Z,53.23
2023-04-09T07:02:53.564Z,53.02
2023-04-09T07:05:22.984Z,52.98
2023-04-09T07:07:51.244Z,52.98
2023-04-09T07:10:20.983Z,52.90
2023-04-09T07:12:49.340Z,52.68
2023-04-09T07:15:17.600Z,52.39
2023-04-09T07:17:46.088Z,52.40
2023-04-09T07:20:14.525Z,52.35
2023-04-09T07:22:42.860Z,52.18
2023-04-09T07:25:11.544Z,52.15
2023-04-09T07:27:41.153Z,52.19
2023-04-09T07:30:10.747Z,51.77
2023-04-09T07:32:39.170Z,51.24
2023-04-09T07:35:09.837Z,51.08
2023-04-09T07:37:38.386Z,50.77
2023-04-09T07:40:08.484Z,50.30
2023-04-09T07:42:40.148Z,49.11
2023-04-09T07:45:09.530Z,50.07
2023-04-09T07:47:38.107Z,49.73
2023-04-09T07:50:07.392Z,49.66
2023-04-09T07:52:35.724Z,48.91
2023-04-09T07:55:04.000Z,48.51
2023-04-09T07:57:33.086Z,48.98
2023-04-09T08:00:03.982Z,48.86
2023-04-09T08:02:41.441Z,48.48
2023-04-09T08:05:10.894Z,48.19
2023-04-09T08:07:39.274Z,47.73
2023-04-09T08:10:08.496Z,47.18
2023-04-09T08:12:36.819Z,46.58
2023-04-09T08:15:07.208Z,46.18
2023-04-09T08:17:37.161Z,45.39
2023-04-09T08:20:06.212Z,45.28
2023-04-09T08:22:34.666Z,44.77
2023-04-09T08:25:03.172Z,44.76
2023-04-09T08:27:32.682Z,43.54
2023-04-09T08:30:00.971Z,43.75
2023-04-09T08:32:30.672Z,42.80
2023-04-09T08:34:58.992Z,42.61
2023-04-09T08:37:27.504Z,43.23
2023-04-09T08:39:55.951Z,43.94
2023-04-09T08:42:26.293Z,44.01
2023-04-09T08:44:54.861Z,43.95
2023-04-09T08:47:23.878Z,44.55
2023-04-09T08:49:54.369Z,44.13
2023-04-09T08:52:33.325Z,41.87
2023-04-09T08:55:02.372Z,42.40
2023-04-09T08:57:30.732Z,42.39
2023-04-09T08:59:59.740Z,42.45
2023-04-09T09:02:28.202Z,41.73
2023-04-09T09:05:00.935Z,40.33
2023-04-09T09:07:30.406Z,40.06
2023-04-09T09:10:00.168Z,39.59
2023-04-09T09:12:36.967Z,39.15
2023-04-09T09:15:05.920Z,41.28
2023-04-09T09:17:34.283Z,40.31
2023-04-09T09:20:20.940Z,39.75
2023-04-09T09:22:55.142Z,38.25
2023-04-09T09:25:26.092Z,37.46
2023-04-09T09:27:55.471Z,36.46
2023-04-09T09:30:25.775Z,36.35
2023-04-09T09:32:55.280Z,37.95
2023-04-09T09:35:25.103Z,38.35
2023-04-09T09:38:04.843Z,37.81
2023-04-09T09:40:33.350Z,38.33
2023-04-09T09:43:01.761Z,37.77
2023-04-09T09:45:31.532Z,37.43
2023-04-09T09:47:59.818Z,37.07
2023-04-09T09:50:33.067Z,37.05
2023-04-09T09:53:04.872Z,36.26
2023-04-09T09:55:34.185Z,35.34
2023-04-09T09:58:04.846Z,34.87
2023-04-09T10:00:34.397Z,34.08
2023-04-09T10:03:13.406Z,32.93
2023-04-09T10:05:43.653Z,33.02
2023-04-09T10:08:12.437Z,33.48
2023-04-09T10:10:43.268Z,32.69
2023-04-09T10:13:15.581Z,33.31
2023-04-09T10:15:44.891Z,32.48
2023-04-09T10:18:14.719Z,33.47
2023-04-09T10:20:52.144Z,32.54
2023-04-09T10:23:34.163Z,31.33
2023-04-09T10:26:03.054Z,32.19
2023-04-09T10:28:32.308Z,30.67
2023-04-09T10:31:00.917Z,30.12
2023-04-09T10:33:29.720Z,29.83
2023-04-09T10:36:05.746Z,29.35
2023-04-09T10:38:38.609Z,29.49
2023-04-09T10:41:17.999Z,29.94
2023-04-09T10:43:48.690Z,30.19
2023-04-09T10:46:30.590Z,31.74
2023-04-09T10:49:13.759Z,30.60
2023-04-09T10:51:45.221Z,29.32
2023-04-09T10:54:39.007Z,29.48
2023-04-09T10:57:15.525Z,28.61
2023-04-09T10:59:46.051Z,29.78
2023-04-09T11:03:01.846Z,27.51
2023-04-09T11:05:34.775Z,27.51
2023-04-09T11:08:08.266Z,28.74
2023-04-09T11:10:37.508Z,27.70
2023-04-09T11:13:06.224Z,26.68
2023-04-09T11:15:37.818Z,26.88
2023-04-09T11:18:09.903Z,28.00
2023-04-09T11:20:38.406Z,28.40
2023-04-09T11:23:08.472Z,26.56
2023-04-09T11:25:36.815Z,26.00
2023-04-09T11:28:06.209Z,26.70
2023-04-09T11:30:35.757Z,26.82
2023-04-09T11:33:04.224Z,25.84
2023-04-09T11:35:35.649Z,25.48
2023-04-09T11:38:09.382Z,25.67
2023-04-09T11:40:43.566Z,24.78
2023-04-09T11:43:12.036Z,24.56
2023-04-09T11:45:40.401Z,25.86
2023-04-09T11:48:08.771Z,26.06
2023-04-09T11:50:37.990Z,26.62
2023-04-09T11:53:19.313Z,26.55
2023-04-09T11:55:49.586Z,25.68
2023-04-09T11:58:18.579Z,23.95
2023-04-09T12:00:47.034Z,24.59
2023-04-09T12:03:17.177Z,25.19
2023-04-09T12:05:51.012Z,24.15
2023-04-09T12:08:25.557Z,24.43
2023-04-09T12:10:54.297Z,24.77
2023-04-09T12:13:22.974Z,24.33
2023-04-09T12:15:51.648Z,23.14
2023-04-09T12:18:22.780Z,22.87
2023-04-09T12:20:51.138Z,23.89
2023-04-09T12:23:21.002Z,23.93
2023-04-09T12:25:49.344Z,25.94
2023-04-09T12:28:18.604Z,24.56
2023-04-09T12:30:49.180Z,22.86
2023-04-09T12:33:17.631Z,22.11
2023-04-09T12:35:46.389Z,22.79
2023-04-09T12:38:14.755Z,21.40
2023-04-09T12:40:44.432Z,22.47
2023-04-09T12:43:12.720Z,22.50
2023-04-09T12:45:41.122Z,22.89
2023-04-09T12:48:09.489Z,23.33
2023-04-09T12:50:37.834Z,24.15
2023-04-09T12:53:06.310Z,23.14
2023-04-09T12:55:34.684Z,22.79
2023-04-09T12:58:04.430Z,22.07
2023-04-09T13:00:33.502Z,21.99
2023-04-09T13:03:01.974Z,21.40
2023-04-09T13:05:31.606Z,21.23
2023-04-09T13:08:00.038Z,21.66
2023-04-09T13:10:28.412Z,22.07
2023-04-09T13:12:56.861Z,23.09
2023-04-09T13:15:27.423Z,22.22
2023-04-09T13:17:56.022Z,22.00
2023-04-09T13:20:24.461Z,22.23
2023-04-09T13:22:52.822Z,22.74
2023-04-09T13:25:21.345Z,22.02
2023-04-09T13:27:50.407Z,21.55
2023-04-09T13:30:18.813Z,21.13
2023-04-09T13:32:48.537Z,21.00
2023-04-09T13:35:17.062Z,20.76
2023-04-09T13:37:45.327Z,19.99
2023-04-09T13:40:14.143Z,20.05
2023-04-09T13:42:42.556Z,20.61
2023-04-09T13:45:11.296Z,19.47
2023-04-09T13:47:39.702Z,19.88
2023-04-09T13:50:13.206Z,19.77
2023-04-09T13:52:41.572Z,19.86
2023-04-09T13:55:11.553Z,19.71
2023-04-09T13:57:39.907Z,19.34
2023-04-09T14:00:09.540Z,20.02
2023-04-09T14:02:37.884Z,20.50
2023-04-09T14:05:06.748Z,20.59
2023-04-09T14:07:36.684Z,21.48
2023-04-09T14:10:05.405Z,21.37
2023-04-09T14:12:33.690Z,20.89
2023-04-09T14:15:01.969Z,20.59
2023-04-09T14:17:30.402Z,21.05
2023-04-09T14:19:59.186Z,21.64
2023-04-09T14:22:28.406Z,21.17
2023-04-09T14:24:59.462Z,21.38
2023-04-09T14:27:27.761Z,22.11
2023-04-09T14:29:56.113Z,22.12
2023-04-09T14:32:24.442Z,21.91
2023-04-09T14:34:52.820Z,21.95
2023-04-09T14:37:21.559Z,22.03
2023-04-09T14:39:50.019Z,21.69
2023-04-09T14:42:19.672Z,21.37
2023-04-09T14:44:47.999Z,21.21
2023-04-09T14:47:16.301Z,20.50
2023-04-09T14:49:44.626Z,20.50
2023-04-09T14:52:12.837Z,21.40
2023-04-09T14:54:41.181Z,21.12
2023-04-09T14:57:09.497Z,20.28
2023-04-09T14:59:39.112Z,21.01
2023-04-09T15:02:07.557Z,21.44
2023-04-09T15:04:35.948Z,22.50
2023-04-09T15:07:04.492Z,22.92
2023-04-09T15:09:32.884Z,22.27
2023-04-09T15:12:01.530Z,22.14
2023-04-09T15:14:30.699Z,22.21
2023-04-09T15:17:00.419Z,22.79
2023-04-09T15:19:28.722Z,22.82
2023-04-09T15:21:57.462Z,22.15
2023-04-09T15:24:26.062Z,21.42
2023-04-09T15:26:54.342Z,21.44
2023-04-09T15:29:22.805Z,21.85
2023-04-09T15:31:54.183Z,21.28
2023-04-09T15:34:25.788Z,21.62
2023-04-09T15:36:54.360Z,22.60
2023-04-09T15:39:24.612Z,22.85
2023-04-09T15:41:53.075Z,22.21
2023-04-09T15:44:21.563Z,22.12
2023-04-09T15:46:49.851Z,22.64
2023-04-09T15:49:19.689Z,22.85
2023-04-09T15:51:50.009Z,23.14
2023-04-09T15:54:18.414Z,23.24
2023-04-09T15:56:46.851Z,23.11
2023-04-09T15:59:16.435Z,23.01
2023-04-09T16:01:44.890Z,23.28
2023-04-09T16:04:13.409Z,23.37
2023-04-09T16:06:41.914Z,23.59
2023-04-09T16:09:11.568Z,23.30
2023-04-09T16:11:40.703Z,23.83
2023-04-09T16:14:09.353Z,23.50
2023-04-09T16:16:38.769Z,23.52
2023-04-09T16:19:07.272Z,23.37
2023-04-09T16:21:35.494Z,23.67
2023-04-09T16:24:03.923Z,23.64
2023-04-09T16:26:33.727Z,23.98
2023-04-09T16:29:04.234Z,24.19
2023-04-09T16:31:32.621Z,23.81
2023-04-09T16:34:01.131Z,23.98
2023-04-09T16:36:29.454Z,24.12
2023-04-09T16:38:57.707Z,24.40
2023-04-09T16:41:26.035Z,24.60
2023-04-09T16:43:55.749Z,24.83
2023-04-09T16:46:24.165Z,25.08
2023-04-09T16:48:52.755Z,25.23
2023-04-09T16:51:21.428Z,25.17
2023-04-09T16:53:49.672Z,26.03
2023-04-09T16:56:18.052Z,26.30
2023-04-09T16:58:46.741Z,26.24
2023-04-09T17:01:16.634Z,26.14
2023-04-09T17:03:45.109Z,26.01
2023-04-09T17:06:13.375Z,25.90
2023-04-09T17:08:42.211Z,25.94
2023-04-09T17:11:10.492Z,26.31
2023-04-09T17:13:38.771Z,25.95
2023-04-09T17:16:07.848Z,25.63
2023-04-09T17:18:37.584Z,25.49
2023-04-09T17:21:07.373Z,25.96
2023-04-09T17:23:36.093Z,26.23
2023-04-09T17:26:04.480Z,26.68
2023-04-09T17:28:32.742Z,26.46
2023-04-09T17:31:01.606Z,26.62
2023-04-09T17:33:29.887Z,26.89
2023-04-09T17:36:00.621Z,26.99
2023-04-09T17:38:29.228Z,27.04
2023-04-09T17:40:57.944Z,27.16
2023-04-09T17:43:26.230Z,27.36
2023-04-09T17:45:54.547Z,27.57
2023-04-09T17:48:22.884Z,27.68
2023-04-09T17:50:51.334Z,28.03
2023-04-09T17:53:21.382Z,28.00
2023-04-09T17:55:51.071Z,28.65
2023-04-09T17:58:19.466Z,28.92
2023-04-09T18:00:47.831Z,29.20
2023-04-09T18:03:16.633Z,29.32
2023-04-09T18:05:45.309Z,29.48
2023-04-09T18:08:13.620Z,29.78
2023-04-09T18:10:43.650Z,30.16
2023-04-09T18:13:12.065Z,30.40
2023-04-09T18:15:40.443Z,30.61
2023-04-09T18:18:34.446Z,30.59
2023-04-09T18:21:02.552Z,30.97
2023-04-09T18:23:31.041Z,31.05
2023-04-09T18:26:03.419Z,31.36
2023-04-09T18:28:31.678Z,31.46
2023-04-09T18:30:59.849Z,31.75
2023-04-09T18:33:28.415Z,31.90
2023-04-09T18:35:58.254Z,32.16
2023-04-09T18:38:28.620Z,32.34
2023-04-09T18:41:00.629Z,32.40
2023-04-09T18:43:30.287Z,32.48
2023-04-09T18:45:59.209Z,32.89
2023-04-09T18:48:27.652Z,32.86
2023-04-09T18:50:55.795Z,33.05
2023-04-09T18:53:25.116Z,33.21
2023-04-09T18:55:53.193Z,33.41
2023-04-09T18:58:21.494Z,33.67
2023-04-09T19:00:51.725Z,34.06
2023-04-09T19:03:22.686Z,34.30
2023-04-09T19:05:53.296Z,34.30
2023-04-09T19:08:21.311Z,34.70
2023-04-09T19:10:49.358Z,34.62
2023-04-09T19:13:18.214Z,34.90
2023-04-09T19:15:46.504Z,35.25
2023-04-09T19:18:17.320Z,35.03
2023-04-09T19:20:47.089Z,35.19
2023-04-09T19:23:15.580Z,35.30
2023-04-09T19:25:45.274Z,35.43
2023-04-09T19:28:13.290Z,35.64
2023-04-09T19:30:41.330Z,35.65
2023-04-09T19:33:09.566Z,35.67
2023-04-09T19:35:40.776Z,36.01
2023-04-09T19:38:09.079Z,36.07
2023-04-09T19:40:37.119Z,36.08
2023-04-09T19:43:05.280Z,36.40
2023-04-09T19:45:33.287Z,36.38
2023-04-09T19:48:04.435Z,36.44
2023-04-09T19:50:35.405Z,36.53
2023-04-09T19:53:05.957Z,36.55
2023-04-09T19:55:34.222Z,36.77
2023-04-09T19:58:02.594Z,37.01
2023-04-09T20:00:30.771Z,37.25
2023-04-09T20:02:59.053Z,37.33
2023-04-09T20:05:27.856Z,37.65
2023-04-09T20:07:55.860Z,37.89
2023-04-09T20:10:25.400Z,37.96
2023-04-09T20:12:53.631Z,37.80
2023-04-09T20:15:22.265Z,37.98
2023-04-09T20:17:52.825Z,38.25
2023-04-09T20:20:21.097Z,38.08
2023-04-09T20:22:55.530Z,38.40
2023-04-09T20:25:28.019Z,38.58
2023-04-09T20:27:56.346Z,38.82
2023-04-09T20:30:24.379Z,38.48
2023-04-09T20:32:52.524Z,38.63
2023-04-09T20:35:20.899Z,38.76
2023-04-09T20:37:49.963Z,38.94
2023-04-09T20:40:17.996Z,39.04
2023-04-09T20:42:47.439Z,40.16
2023-04-09T20:45:15.742Z,40.15
2023-04-09T20:47:43.863Z,40.32
2023-04-09T20:50:12.560Z,40.56
2023-04-09T20:52:40.634Z,40.54
2023-04-09T20:55:09.418Z,40.54
2023-04-09T20:57:37.467Z,40.49
2023-04-09T21:00:08.640Z,40.32
2023-04-09T21:02:36.834Z,40.47
2023-04-09T21:05:15.462Z,40.70
2023-04-09T21:07:47.502Z,40.73
2023-04-09T21:10:15.540Z,40.71
2023-04-09T21:12:43.617Z,41.22
2023-04-09T21:15:13.304Z,41.08
2023-04-09T21:17:41.376Z,41.49
2023-04-09T21:20:10.380Z,41.97
2023-04-09T21:22:38.418Z,42.20
2023-04-09T21:25:07.544Z,42.18
2023-04-09T21:27:35.581Z,42.29
2023-04-09T21:30:03.757Z,42.23
2023-04-09T21:32:33.206Z,42.44
2023-04-09T21:35:01.237Z,42.09
2023-04-09T21:37:29.914Z,41.90
2023-04-09T21:39:58.002Z,41.96
2023-04-09T21:42:26.570Z,42.22
2023-04-09T21:44:54.602Z,42.33
2023-04-09T21:47:22.792Z,42.29
2023-04-09T21:49:52.311Z,42.42
2023-04-09T21:52:20.352Z,42.45
2023-04-09T21:54:48.367Z,42.42
2023-04-09T21:57:16.543Z,42.36
2023-04-09T21:59:44.542Z,42.45
2023-04-09T22:02:12.695Z,42.71
2023-04-09T22:04:42.565Z,42.85
2023-04-09T22:07:12.734Z,43.02
2023-04-09T22:09:40.812Z,42.94
2023-04-09T22:12:09.056Z,42.75
2023-04-09T22:14:37.373Z,42.92
2023-04-09T22:17:06.065Z,42.93
2023-04-09T22:19:34.509Z,42.98
2023-04-09T22:22:02.551Z,43.08
2023-04-09T22:24:31.942Z,43.23
2023-04-09T22:27:01.462Z,43.43
2023-04-09T22:29:29.980Z,43.73
2023-04-09T22:31:58.095Z,43.67
2023-04-09T22:34:26.280Z,43.53
2023-04-09T22:36:54.302Z,43.41
2023-04-09T22:39:22.577Z,43.50
2023-04-09T22:41:52.098Z,43.63
2023-04-09T22:44:20.154Z,43.74
2023-04-09T22:46:48.192Z,43.90
2023-04-09T22:49:17.406Z,44.03
2023-04-09T22:51:45.778Z,44.04
2023-04-09T22:54:13.788Z,44.01
2023-04-09T22:56:41.850Z,44.07
2023-04-09T22:59:11.249Z,44.09
2023-04-09T23:01:39.473Z,44.55
2023-04-09T23:04:07.529Z,44.79
2023-04-09T23:06:36.022Z,44.62
2023-04-09T23:09:04.051Z,44.59
2023-04-09T23:11:32.068Z,45.14
2023-04-09T23:14:00.104Z,45.19
2023-04-09T23:16:29.572Z,45.10
2023-04-09T23:18:57.631Z,45.15
2023-04-09T23:21:26.372Z,44.96
2023-04-09T23:23:54.566Z,44.82
2023-04-09T23:26:22.699Z,45.09
2023-04-09T23:28:50.924Z,44.92
2023-04-09T23:31:19.105Z,45.03
2023-04-09T23:33:49.160Z,45.16
2023-04-09T23:36:17.267Z,44.99
2023-04-09T23:38:46.996Z,45.07
2023-04-09T23:41:15.165Z,44.90
2023-04-09T23:43:43.147Z,44.80
2023-04-09T23:46:11.251Z,45.16
2023-04-09T23:48:39.243Z,45.16
2023-04-09T23:51:08.987Z,45.44
2023-04-09T23:53:36.991Z,45.31
2023-04-09T23:56:05.632Z,45.39
2023-04-09T23:58:33.685Z,45.49
